Time,TemperatureF,DewpointF,PressureIn,WindDirection,WindDirectionDegrees,WindSpeedMPH,WindSpeedGustMPH,Humidity,HourlyPrecipIn,Conditions,Clouds,dailyrainin,SolarRadiationWatts/m^2,SoftwareType,DateUTC
2013-06-18 00:02:00,57.0,55.0,29.93,NE,49,0.0,-999.0,92,-99.99,,,-99.99,0.000000,,2013-06-18 04:02:00,
2013-06-18 00:12:00,57.0,55.0,29.93,NE,49,0.0,-999.0,92,-99.99,,,-99.99,0.000000,,2013-06-18 04:12:00,
2013-06-18 00:23:00,57.0,55.0,29.93,NE,49,0.0,-999.0,92,-99.99,,,-99.99,0.000000,,2013-06-18 04:23:00,
2013-06-18 00:34:00,56.0,54.0,29.93,NE,49,0.0,-999.0,92,-99.99,,,-99.99,0.000000,,2013-06-18 04:34:00,
2013-06-18 00:43:00,56.0,54.0,29.94,NE,49,0.0,-999.0,93,-99.99,,,-99.99,0.000000,,2013-06-18 04:43:00,
2013-06-18 00:53:00,56.0,54.0,29.94,NE,49,0.0,-999.0,93,-99.99,,,-99.99,0.000000,,2013-06-18 04:53:00,
2013-06-18 01:03:00,56.0,54.0,29.93,NE,49,0.0,-999.0,93,-99.99,,,-99.99,0.000000,,2013-06-18 05:03:00,
2013-06-18 01:12:00,56.0,54.0,29.93,NE,49,0.0,-999.0,93,-99.99,,,-99.99,0.000000,,2013-06-18 05:12:00,
2013-06-18 01:22:00,56.0,54.0,29.93,NE,49,0.0,-999.0,93,-99.99,,,-99.99,0.000000,,2013-06-18 05:22:00,
2013-06-18 01:34:00,55.0,53.0,29.93,NE,49,0.0,-999.0,93,-99.99,,,-99.99,0.000000,,2013-06-18 05:34:00,
2013-06-18 01:43:00,55.0,53.0,29.93,NE,49,0.0,-999.0,93,-99.99,,,-99.99,0.000000,,2013-06-18 05:43:00,
2013-06-18 01:53:00,55.0,53.0,29.93,NE,49,0.0,-999.0,93,-99.99,,,-99.99,0.000000,,2013-06-18 05:53:00,
2013-06-18 02:02:00,54.0,52.0,29.92,NE,49,0.0,-999.0,93,-99.99,,,-99.99,0.000000,,2013-06-18 06:02:00,
2013-06-18 02:12:00,54.0,52.0,29.92,NE,49,0.0,-999.0,93,-99.99,,,-99.99,0.000000,,2013-06-18 06:12:00,
2013-06-18 02:24:00,54.0,52.0,29.92,NE,49,0.0,-999.0,93,-99.99,,,-99.99,0.000000,,2013-06-18 06:24:00,
2013-06-18 02:32:00,54.0,52.0,29.92,NE,49,0.0,-999.0,93,-99.99,,,-99.99,0.000000,,2013-06-18 06:32:00,
2013-06-18 02:43:00,54.0,52.0,29.92,NE,49,0.0,-999.0,93,-99.99,,,-99.99,0.000000,,2013-06-18 06:43:00,
2013-06-18 02:53:00,54.0,52.0,29.92,NE,49,0.0,-999.0,93,-99.99,,,-99.99,0.000000,,2013-06-18 06:53:00,
2013-06-18 03:02:00,54.0,52.0,29.91,NE,49,0.0,-999.0,94,-99.99,,,-99.99,0.000000,,2013-06-18 07:02:00,
2013-06-18 03:12:00,54.0,52.0,29.91,NE,49,0.0,-999.0,94,-99.99,,,-99.99,0.000000,,2013-06-18 07:12:00,
2013-06-18 03:22:00,54.0,52.0,29.91,NE,49,0.0,-999.0,94,-99.99,,,-99.99,0.000000,,2013-06-18 07:22:00,
2013-06-18 03:33:00,53.0,51.0,29.91,NE,49,0.0,-999.0,94,-99.99,,,-99.99,0.000000,,2013-06-18 07:33:00,
2013-06-18 03:43:00,53.0,51.0,29.91,NE,49,0.0,-999.0,94,-99.99,,,-99.99,0.000000,,2013-06-18 07:43:00,
2013-06-18 03:53:00,53.0,51.0,29.91,NE,49,0.0,-999.0,94,-99.99,,,-99.99,0.000000,,2013-06-18 07:53:00,
2013-06-18 04:02:00,53.0,51.0,29.91,NE,49,0.0,-999.0,94,-99.99,,,-99.99,0.000000,,2013-06-18 08:02:00,
2013-06-18 04:11:00,53.0,51.0,29.91,NE,49,0.0,-999.0,94,-99.99,,,-99.99,0.000000,,2013-06-18 08:11:00,
2013-06-18 04:23:00,53.0,51.0,29.91,NE,49,0.0,-999.0,94,-99.99,,,-99.99,0.000000,,2013-06-18 08:23:00,
2013-06-18 04:33:00,53.0,51.0,29.90,NE,49,0.0,-999.0,94,-99.99,,,-99.99,0.000000,,2013-06-18 08:33:00,
2013-06-18 04:43:00,52.0,50.0,29.90,NE,49,0.0,-999.0,94,-99.99,,,-99.99,0.000000,,2013-06-18 08:43:00,
2013-06-18 04:52:00,52.0,50.0,29.90,NE,49,0.0,-999.0,94,-99.99,,,-99.99,0.000000,,2013-06-18 08:52:00,
2013-06-18 05:02:00,52.0,50.0,29.90,NE,49,0.0,-999.0,94,-99.99,,,-99.99,0.000000,,2013-06-18 09:02:00,
2013-06-18 05:12:00,52.0,50.0,29.90,NE,49,0.0,-999.0,94,-99.99,,,-99.99,0.000000,,2013-06-18 09:12:00,
2013-06-18 05:22:00,52.0,50.0,29.90,NE,49,0.0,-999.0,94,-99.99,,,-99.99,0.000000,,2013-06-18 09:22:00,
2013-06-18 05:34:00,51.0,49.0,29.91,NE,49,0.0,-999.0,94,-99.99,,,-99.99,0.000000,,2013-06-18 09:34:00,
2013-06-18 05:43:00,51.0,49.0,29.91,NE,49,0.0,-999.0,94,-99.99,,,-99.99,0.000000,,2013-06-18 09:43:00,
2013-06-18 05:53:00,51.0,49.0,29.91,NE,49,0.0,-999.0,94,-99.99,,,-99.99,0.000000,,2013-06-18 09:53:00,
2013-06-18 06:02:00,51.0,49.0,29.91,NE,49,0.0,-999.0,94,-99.99,,,-99.99,16.000000,,2013-06-18 10:02:00,
2013-06-18 06:11:00,51.0,49.0,29.91,NE,49,0.0,-999.0,94,-99.99,,,-99.99,26.000000,,2013-06-18 10:11:00,
2013-06-18 06:22:00,51.0,49.0,29.91,NE,49,0.0,-999.0,94,-99.99,,,-99.99,26.000000,,2013-06-18 10:22:00,
2013-06-18 06:33:00,51.0,50.0,29.91,NE,49,0.0,-999.0,95,-99.99,,,-99.99,51.000000,,2013-06-18 10:33:00,
2013-06-18 06:43:00,51.0,50.0,29.91,NE,49,0.0,-999.0,95,-99.99,,,-99.99,51.000000,,2013-06-18 10:43:00,
2013-06-18 06:53:00,51.0,50.0,29.92,NE,49,0.0,-999.0,95,-99.99,,,-99.99,135.000000,,2013-06-18 10:53:00,
2013-06-18 07:02:00,52.0,51.0,29.91,NE,49,0.0,-999.0,95,-99.99,,,-99.99,144.000000,,2013-06-18 11:02:00,
2013-06-18 07:11:00,52.0,51.0,29.91,NE,49,0.0,-999.0,95,-99.99,,,-99.99,144.000000,,2013-06-18 11:11:00,
2013-06-18 07:22:00,53.0,52.0,29.93,NE,49,0.0,-999.0,95,-99.99,,,-99.99,84.000000,,2013-06-18 11:22:00,
2013-06-18 07:32:00,53.0,52.0,29.93,NE,49,0.0,-999.0,95,-99.99,,,-99.99,134.000000,,2013-06-18 11:32:00,
2013-06-18 07:43:00,54.0,53.0,29.93,NE,49,0.0,-999.0,96,-99.99,,,-99.99,83.000000,,2013-06-18 11:43:00,
2013-06-18 07:52:00,54.0,53.0,29.93,NE,49,0.0,-999.0,96,-99.99,,,-99.99,83.000000,,2013-06-18 11:52:00,
2013-06-18 08:01:00,55.0,54.0,29.93,NE,49,0.0,-999.0,95,-99.99,,,-99.99,156.000000,,2013-06-18 12:01:00,
2013-06-18 08:11:00,56.0,55.0,29.93,NE,49,0.0,-999.0,96,-99.99,,,-99.99,116.000000,,2013-06-18 12:11:00,
2013-06-18 08:22:00,56.0,55.0,29.93,NE,49,0.0,-999.0,96,-99.99,,,-99.99,116.000000,,2013-06-18 12:22:00,
2013-06-18 08:33:00,56.0,55.0,29.93,NE,49,0.0,-999.0,95,-99.99,,,-99.99,155.000000,,2013-06-18 12:33:00,
2013-06-18 08:43:00,57.0,56.0,29.93,NE,49,0.0,-999.0,96,-99.99,,,-99.99,206.000000,,2013-06-18 12:43:00,
2013-06-18 08:52:00,57.0,56.0,29.93,NE,49,0.0,-999.0,96,-99.99,,,-99.99,206.000000,,2013-06-18 12:52:00,
2013-06-18 09:02:00,57.0,56.0,29.93,NE,49,0.0,-999.0,96,-99.99,,,-99.99,206.000000,,2013-06-18 13:02:00,
2013-06-18 09:12:00,59.0,58.0,29.93,NE,49,0.0,-999.0,96,-99.99,,,-99.99,320.000000,,2013-06-18 13:12:00,
2013-06-18 09:22:00,60.0,59.0,29.93,NE,49,0.0,-999.0,96,-99.99,,,-99.99,271.000000,,2013-06-18 13:22:00,
2013-06-18 09:33:00,60.0,59.0,29.92,NE,49,0.0,-999.0,96,-99.99,,,-99.99,267.000000,,2013-06-18 13:33:00,
2013-06-18 09:43:00,61.0,60.0,29.92,NE,49,0.0,-999.0,96,-99.99,,,-99.99,455.000000,,2013-06-18 13:43:00,
2013-06-18 09:52:00,61.0,60.0,29.92,NE,49,0.0,-999.0,96,-99.99,,,-99.99,455.000000,,2013-06-18 13:52:00,
2013-06-18 10:02:00,61.0,60.0,29.92,NE,49,0.0,-999.0,95,-99.99,,,-99.99,267.000000,,2013-06-18 14:02:00,
2013-06-18 10:11:00,62.0,61.0,29.93,NE,49,0.0,-999.0,95,-99.99,,,-99.99,72.000000,,2013-06-18 14:11:00,
2013-06-18 10:22:00,62.0,61.0,29.93,NE,49,0.0,-999.0,95,-99.99,,,-99.99,72.000000,,2013-06-18 14:22:00,
2013-06-18 10:33:00,62.0,60.0,29.93,NE,49,0.0,-999.0,93,-99.99,,,-99.99,35.000000,,2013-06-18 14:33:00,
2013-06-18 10:43:00,62.0,59.0,29.93,ESE,113,0.0,-999.0,91,-99.99,,,-99.99,127.000000,,2013-06-18 14:43:00,
2013-06-18 10:53:00,62.0,59.0,29.93,ESE,113,0.0,-999.0,91,-99.99,,,-99.99,127.000000,,2013-06-18 14:53:00,
2013-06-18 11:02:00,62.0,60.0,29.93,ESE,115,0.0,-999.0,92,-99.99,,,-99.99,485.000000,,2013-06-18 15:02:00,
2013-06-18 11:11:00,65.0,61.0,29.93,ESE,115,0.0,-999.0,86,-99.99,,,-99.99,448.000000,,2013-06-18 15:11:00,
2013-06-18 11:22:00,65.0,61.0,29.93,ESE,115,0.0,-999.0,86,-99.99,,,-99.99,448.000000,,2013-06-18 15:22:00,
2013-06-18 11:33:00,67.0,61.0,29.93,NNE,17,0.0,-999.0,82,-99.99,,,-99.99,373.000000,,2013-06-18 15:33:00,
2013-06-18 11:43:00,68.0,61.0,29.93,NNE,17,0.0,-999.0,79,-99.99,,,-99.99,415.000000,,2013-06-18 15:43:00,
2013-06-18 11:53:00,68.0,61.0,29.93,NNE,17,0.0,-999.0,79,-99.99,,,-99.99,415.000000,,2013-06-18 15:53:00,
2013-06-18 12:02:00,69.0,61.0,29.93,NNE,17,1.0,-999.0,75,-99.99,,,-99.99,415.000000,,2013-06-18 16:02:00,
2013-06-18 12:11:00,69.0,61.0,29.93,NNE,17,1.0,-999.0,75,-99.99,,,-99.99,415.000000,,2013-06-18 16:11:00,
2013-06-18 12:23:00,70.0,60.0,29.92,NNE,23,1.0,-999.0,70,-99.99,,,-99.99,858.000000,,2013-06-18 16:23:00,
2013-06-18 12:33:00,72.0,60.0,29.92,NNE,15,2.0,-999.0,65,-99.99,,,-99.99,550.000000,,2013-06-18 16:33:00,
2013-06-18 12:43:00,72.0,60.0,29.92,NNE,13,2.0,-999.0,65,-99.99,,,-99.99,483.000000,,2013-06-18 16:43:00,
2013-06-18 12:53:00,72.0,60.0,29.92,NNE,13,2.0,-999.0,65,-99.99,,,-99.99,483.000000,,2013-06-18 16:53:00,
2013-06-18 13:02:00,71.0,61.0,29.93,North,5,4.0,-999.0,70,-99.99,,,-99.99,262.000000,,2013-06-18 17:02:00,
2013-06-18 13:12:00,68.0,61.0,29.92,NNW,338,7.0,-999.0,78,-99.99,,,-99.99,837.000000,,2013-06-18 17:12:00,
2013-06-18 13:22:00,68.0,61.0,29.92,NNW,338,7.0,-999.0,78,-99.99,,,-99.99,837.000000,,2013-06-18 17:22:00,
2013-06-18 13:34:00,68.0,59.0,29.92,ENE,63,6.0,-999.0,74,-99.99,,,-99.99,411.000000,,2013-06-18 17:34:00,
2013-06-18 13:43:00,68.0,60.0,29.92,NNE,19,5.0,-999.0,76,-99.99,,,-99.99,,,2013-06-18 17:43:00,
2013-06-18 13:53:00,68.0,60.0,29.92,NNE,19,5.0,-999.0,76,-99.99,,,-99.99,,,2013-06-18 17:53:00,
2013-06-18 14:02:00,68.0,59.0,29.91,ENE,67,5.0,-999.0,74,-99.99,,,-99.99,439.000000,,2013-06-18 18:02:00,
2013-06-18 14:12:00,67.0,59.0,29.91,ENE,71,4.0,-999.0,75,-99.99,,,-99.99,397.000000,,2013-06-18 18:12:00,
2013-06-18 14:22:00,67.0,59.0,29.91,ENE,71,4.0,-999.0,75,-99.99,,,-99.99,397.000000,,2013-06-18 18:22:00,
2013-06-18 14:33:00,66.0,57.0,29.91,North,5,7.0,-999.0,74,-99.99,,,-99.99,568.000000,,2013-06-18 18:33:00,
2013-06-18 14:42:00,66.0,57.0,29.91,NNE,15,6.0,-999.0,74,-99.99,,,-99.99,332.000000,,2013-06-18 18:42:00,
2013-06-18 14:53:00,66.0,57.0,29.91,NNE,15,6.0,-999.0,74,-99.99,,,-99.99,332.000000,,2013-06-18 18:53:00,
2013-06-18 15:02:00,65.0,57.0,29.91,NE,46,6.0,-999.0,76,-99.99,,,-99.99,392.000000,,2013-06-18 19:02:00,
2013-06-18 15:12:00,65.0,57.0,29.91,NE,46,6.0,-999.0,76,-99.99,,,-99.99,392.000000,,2013-06-18 19:12:00,
2013-06-18 15:22:00,64.0,56.0,29.92,NE,42,3.0,-999.0,76,-99.99,,,-99.99,316.000000,,2013-06-18 19:22:00,
2013-06-18 15:33:00,64.0,57.0,29.92,NNE,13,5.0,-999.0,78,-99.99,,,-99.99,302.000000,,2013-06-18 19:33:00,
2013-06-18 15:43:00,63.0,56.0,29.91,NNE,32,5.0,-999.0,79,-99.99,,,-99.99,359.000000,,2013-06-18 19:43:00,
2013-06-18 15:52:00,63.0,56.0,29.91,NNE,32,5.0,-999.0,79,-99.99,,,-99.99,359.000000,,2013-06-18 19:52:00,
2013-06-18 16:02:00,64.0,57.0,29.91,North,355,3.0,-999.0,79,-99.99,,,-99.99,401.000000,,2013-06-18 20:02:00,
2013-06-18 16:12:00,64.0,57.0,29.91,North,355,3.0,-999.0,79,-99.99,,,-99.99,401.000000,,2013-06-18 20:12:00,
2013-06-18 16:23:00,64.0,57.0,29.91,ENE,58,5.0,-999.0,78,-99.99,,,-99.99,325.000000,,2013-06-18 20:23:00,
2013-06-18 16:33:00,63.0,56.0,29.91,East,83,3.0,-999.0,79,-99.99,,,-99.99,248.000000,,2013-06-18 20:33:00,
2013-06-18 16:43:00,63.0,56.0,29.91,East,83,3.0,-999.0,79,-99.99,,,-99.99,248.000000,,2013-06-18 20:43:00,
2013-06-18 16:52:00,63.0,57.0,29.92,ENE,59,3.0,-999.0,80,-99.99,,,-99.99,134.000000,,2013-06-18 20:52:00,
2013-06-18 17:02:00,62.0,56.0,29.92,NE,40,3.0,-999.0,81,-99.99,,,-99.99,67.000000,,2013-06-18 21:02:00,
2013-06-18 17:12:00,62.0,56.0,29.92,NE,36,3.0,-999.0,81,-99.99,,,-99.99,105.000000,,2013-06-18 21:12:00,
2013-06-18 17:23:00,62.0,56.0,29.92,NE,36,3.0,-999.0,81,-99.99,,,-99.99,105.000000,,2013-06-18 21:23:00,
2013-06-18 17:33:00,61.0,55.0,29.92,North,355,2.0,-999.0,82,-99.99,,,-99.99,153.000000,,2013-06-18 21:33:00,
2013-06-18 17:43:00,61.0,55.0,29.92,North,355,2.0,-999.0,82,-99.99,,,-99.99,153.000000,,2013-06-18 21:43:00,
2013-06-18 17:52:00,61.0,55.0,29.92,NNE,21,5.0,-999.0,81,-99.99,,,-99.99,128.000000,,2013-06-18 21:52:00,
2013-06-18 18:02:00,60.0,55.0,29.92,ENE,76,4.0,-999.0,83,-99.99,,,-99.99,65.000000,,2013-06-18 22:02:00,
2013-06-18 18:11:00,59.0,54.0,29.92,ENE,66,4.0,-999.0,84,-99.99,,,-99.99,51.000000,,2013-06-18 22:11:00,
2013-06-18 18:22:00,59.0,54.0,29.92,ENE,66,4.0,-999.0,84,-99.99,,,-99.99,51.000000,,2013-06-18 22:22:00,
2013-06-18 18:34:00,59.0,54.0,29.93,ENE,69,2.0,-999.0,85,-99.99,,,-99.99,81.000000,,2013-06-18 22:34:00,
2013-06-18 18:43:00,59.0,54.0,29.93,NE,49,2.0,-999.0,85,-99.99,,,-99.99,70.000000,,2013-06-18 22:43:00,
2013-06-18 18:53:00,59.0,54.0,29.93,NE,49,2.0,-999.0,85,-99.99,,,-99.99,70.000000,,2013-06-18 22:53:00,
2013-06-18 19:02:00,59.0,54.0,29.94,East,82,2.0,-999.0,85,-99.99,,,-99.99,33.000000,,2013-06-18 23:02:00,
2013-06-18 19:12:00,59.0,54.0,29.94,ENE,74,2.0,-999.0,85,-99.99,,,-99.99,91.000000,,2013-06-18 23:12:00,
2013-06-18 19:23:00,59.0,54.0,29.94,ENE,74,2.0,-999.0,85,-99.99,,,-99.99,91.000000,,2013-06-18 23:23:00,
2013-06-18 19:38:00,59.0,54.0,29.95,NE,42,2.0,-999.0,85,-99.99,,,-99.99,62.000000,,2013-06-18 23:38:00,
2013-06-18 19:47:00,58.0,54.0,29.95,NE,53,2.0,-999.0,85,-99.99,,,-99.99,42.000000,,2013-06-18 23:47:00,
2013-06-18 19:53:00,58.0,54.0,29.95,NE,53,2.0,-999.0,85,-99.99,,,-99.99,42.000000,,2013-06-18 23:53:00,
2013-06-18 20:02:00,58.0,54.0,29.94,NNE,32,3.0,-999.0,86,-99.99,,,-99.99,83.000000,,2013-06-19 00:02:00,
2013-06-18 20:12:00,58.0,54.0,29.94,NE,53,3.0,-999.0,86,-99.99,,,-99.99,98.000000,,2013-06-19 00:12:00,
2013-06-18 20:22:00,58.0,54.0,29.94,NE,53,3.0,-999.0,86,-99.99,,,-99.99,98.000000,,2013-06-19 00:22:00,
2013-06-18 20:33:00,58.0,54.0,29.94,NNE,13,2.0,-999.0,86,-99.99,,,-99.99,54.000000,,2013-06-19 00:33:00,
2013-06-18 20:43:00,57.0,53.0,29.95,North,355,2.0,-999.0,87,-99.99,,,-99.99,23.000000,,2013-06-19 00:43:00,
2013-06-18 20:53:00,57.0,53.0,29.95,North,355,2.0,-999.0,87,-99.99,,,-99.99,23.000000,,2013-06-19 00:53:00,
2013-06-18 21:02:00,57.0,53.0,29.95,NE,35,1.0,-999.0,87,-99.99,,,-99.99,5.000000,,2013-06-19 01:02:00,
2013-06-18 21:11:00,57.0,53.0,29.95,NE,35,1.0,-999.0,87,-99.99,,,-99.99,5.000000,,2013-06-19 01:11:00,
2013-06-18 21:22:00,57.0,53.0,29.95,East,89,2.0,-999.0,87,-99.99,,,-99.99,0.000000,,2013-06-19 01:22:00,
2013-06-18 21:32:00,56.0,52.0,29.96,NE,49,1.0,-999.0,87,-99.99,,,-99.99,0.000000,,2013-06-19 01:32:00,
2013-06-18 21:43:00,56.0,52.0,29.96,NE,49,1.0,-999.0,87,-99.99,,,-99.99,0.000000,,2013-06-19 01:43:00,
2013-06-18 21:53:00,56.0,52.0,29.96,NE,49,1.0,-999.0,87,-99.99,,,-99.99,0.000000,,2013-06-19 01:53:00,
2013-06-18 22:01:00,56.0,52.0,29.96,NE,49,1.0,-999.0,87,-99.99,,,-99.99,0.000000,,2013-06-19 02:01:00,
2013-06-18 22:11:00,56.0,52.0,29.96,NE,49,1.0,-999.0,87,-99.99,,,-99.99,0.000000,,2013-06-19 02:11:00,
2013-06-18 22:21:00,56.0,52.0,29.96,NE,48,2.0,-999.0,87,-99.99,,,-99.99,0.000000,,2013-06-19 02:21:00,
2013-06-18 22:32:00,54.0,50.0,29.98,NE,47,1.0,-999.0,87,-99.99,,,-99.99,0.000000,,2013-06-19 02:32:00,
2013-06-18 22:43:00,54.0,50.0,29.98,NE,47,1.0,-999.0,87,-99.99,,,-99.99,0.000000,,2013-06-19 02:43:00,
2013-06-18 22:52:00,53.0,49.0,29.98,NE,47,0.0,-999.0,87,-99.99,,,-99.99,0.000000,,2013-06-19 02:52:00,
2013-06-18 23:01:00,52.0,48.0,29.97,NE,47,0.0,-999.0,87,-99.99,,,-99.99,0.000000,,2013-06-19 03:01:00,
2013-06-18 23:12:00,52.0,48.0,29.97,NE,47,0.0,-999.0,87,-99.99,,,-99.99,0.000000,,2013-06-19 03:12:00,
2013-06-18 23:22:00,51.0,48.0,29.98,NE,47,0.0,-999.0,88,-99.99,,,-99.99,0.000000,,2013-06-19 03:22:00,
2013-06-18 23:33:00,51.0,48.0,29.98,NE,47,0.0,-999.0,88,-99.99,,,-99.99,0.000000,,2013-06-19 03:33:00,
2013-06-18 23:43:00,51.0,48.0,29.98,NE,47,0.0,-999.0,89,-99.99,,,-99.99,0.000000,,2013-06-19 03:43:00,
2013-06-18 23:52:00,51.0,48.0,29.98,NE,47,0.0,-999.0,89,-99.99,,,-99.99,0.000000,,2013-06-19 03:52:00,